Time;durP1;ratioP1;P1;durP2;ratioP2;P2;SDS_P1;SDS_P2;PMS_P1;PMS_P2;Temp;Humidity;BMP_temperature;BMP_pressure;BME280_temperature;BME280_humidity;BME280_pressure;Samples;Min_cycle;Max_cycle;Signal;HPM_P1;HPM_P2
2021/06/06 00:01:19;;;;;;;11.20;5.85;;;;;;;18.54;57.50;101160.22;5098912;28;20077;-87
2021/06/06 00:03:51;;;;;;;7.05;5.60;;;;;;;18.44;57.43;101157.50;5112278;28;20361;-87
2021/06/06 00:06:24;;;;;;;11.25;5.90;;;;;;;18.25;58.40;101162.66;5070711;28;20495;-87
2021/06/06 00:08:51;;;;;;;11.40;5.78;;;;;;;18.22;58.20;101162.91;5096242;28;20045;-88
2021/06/06 00:11:30;;;;;;;8.65;5.95;;;;;;;18.27;57.89;101167.88;5102977;28;20696;-86
2021/06/06 00:14:00;;;;;;;7.18;5.38;;;;;;;18.34;57.77;101151.25;5077874;28;20182;-86
2021/06/06 00:16:34;;;;;;;6.72;5.95;;;;;;;18.21;58.13;101156.75;5077954;28;20063;-88
2021/06/06 00:19:03;;;;;;;10.30;5.40;;;;;;;18.04;58.56;101159.09;5075826;28;20406;-87
2021/06/06 00:21:34;;;;;;;9.48;5.95;;;;;;;17.95;58.88;101166.03;5119752;28;20036;-87
2021/06/06 00:24:02;;;;;;;9.98;5.95;;;;;;;18.01;58.85;101164.66;5097501;28;20112;-88
2021/06/06 00:26:30;;;;;;;8.95;5.38;;;;;;;17.90;59.13;101161.06;5076226;28;20055;-88
2021/06/06 00:28:57;;;;;;;12.35;6.93;;;;;;;17.87;59.09;101165.78;5074461;28;20036;-87
2021/06/06 00:31:24;;;;;;;8.13;5.85;;;;;;;18.00;58.69;101160.31;5107977;28;20106;-86
2021/06/06 00:33:52;;;;;;;8.93;5.80;;;;;;;17.92;58.80;101160.94;5071727;28;20488;-86
2021/06/06 00:36:24;;;;;;;12.93;6.45;;;;;;;17.84;59.18;101168.72;5108196;28;20523;-86
2021/06/06 00:38:53;;;;;;;11.98;6.38;;;;;;;18.13;58.11;101164.50;5070720;28;20110;-87
2021/06/06 00:41:22;;;;;;;6.55;5.63;;;;;;;18.01;58.73;101162.00;5075875;28;20522;-88
2021/06/06 00:43:50;;;;;;;9.98;5.90;;;;;;;17.94;58.97;101175.00;5092203;28;20100;-87
2021/06/06 00:46:20;;;;;;;9.95;6.18;;;;;;;17.89;59.16;101169.19;5078874;28;20142;-89
2021/06/06 00:48:49;;;;;;;9.25;6.13;;;;;;;17.79;59.77;101177.09;5075659;28;20055;-86
2021/06/06 00:51:28;;;;;;;9.43;6.15;;;;;;;17.53;60.74;101181.78;5091114;28;20066;-86
2021/06/06 00:53:59;;;;;;;12.25;6.97;;;;;;;17.35;61.84;101175.25;5074764;28;20078;-87
2021/06/06 00:56:28;;;;;;;9.60;6.57;;;;;;;17.35;61.45;101180.59;5093166;28;20083;-85
2021/06/06 00:58:58;;;;;;;9.05;6.88;;;;;;;17.23;62.15;101176.22;5081773;28;20071;-87
2021/06/06 01:01:26;;;;;;;10.23;6.90;;;;;;;17.21;62.34;101179.00;5105849;28;20442;-86
2021/06/06 01:03:55;;;;;;;9.05;6.97;;;;;;;17.34;61.70;101177.06;5076806;28;20082;-85
2021/06/06 01:06:36;;;;;;;13.80;7.07;;;;;;;17.20;62.39;101177.28;5065510;28;20077;-88
2021/06/06 01:09:07;;;;;;;8.27;6.75;;;;;;;17.21;62.47;101171.88;5096236;28;20086;-87
2021/06/06 01:12:08;;;;;;;10.27;6.97;;;;;;;17.34;62.18;101176.22;5079746;28;20043;-86
2021/06/06 01:14:43;;;;;;;9.73;6.47;;;;;;;17.27;61.93;101167.03;5070517;28;20051;-86
2021/06/06 01:17:19;;;;;;;9.40;6.30;;;;;;;17.18;62.50;101164.13;5090798;28;20050;-88
2021/06/06 01:20:05;;;;;;;11.88;7.30;;;;;;;17.08;63.05;101172.94;5092643;28;20150;-88
2021/06/06 01:22:41;;;;;;;9.73;6.65;;;;;;;17.06;63.28;101172.19;5113658;28;20052;-87
2021/06/06 01:25:12;;;;;;;8.65;6.72;;;;;;;16.99;63.26;101168.34;5077636;28;20048;-86
2021/06/06 01:27:43;;;;;;;10.43;6.38;;;;;;;16.95;63.80;101167.72;5069945;28;20297;-86
2021/06/06 01:30:15;;;;;;;13.57;6.20;;;;;;;16.83;64.64;101169.50;5089844;28;20089;-87
2021/06/06 01:32:48;;;;;;;11.25;6.75;;;;;;;16.73;64.87;101170.31;5091733;28;20044;-87
2021/06/06 01:35:25;;;;;;;7.93;6.90;;;;;;;16.64;64.76;101166.53;5088478;28;20077;-87
2021/06/06 01:37:59;;;;;;;10.80;6.65;;;;;;;16.68;64.71;101170.66;5097590;28;20044;-86
2021/06/06 01:40:31;;;;;;;6.90;6.20;;;;;;;16.76;64.55;101173.59;5082581;28;20044;-85
2021/06/06 01:43:02;;;;;;;15.15;7.03;;;;;;;16.72;65.07;101166.81;5101489;28;20126;-87
2021/06/06 01:45:33;;;;;;;14.35;8.00;;;;;;;16.83;63.99;101166.00;5101234;28;20315;-86
2021/06/06 01:48:05;;;;;;;8.48;6.55;;;;;;;16.78;63.73;101163.69;5082342;28;20052;-87
2021/06/06 01:50:35;;;;;;;7.85;6.00;;;;;;;16.75;64.35;101163.06;5080271;28;20082;-88
2021/06/06 01:53:04;;;;;;;10.52;6.90;;;;;;;16.84;64.15;101160.56;5096363;28;20051;-88
2021/06/06 01:55:35;;;;;;;14.30;7.45;;;;;;;16.77;64.04;101159.34;5098298;28;20117;-88
2021/06/06 01:58:05;;;;;;;8.45;7.22;;;;;;;16.78;64.08;101162.84;5099896;28;20136;-88
2021/06/06 02:00:41;;;;;;;15.57;6.90;;;;;;;16.85;63.73;101162.25;5098031;28;20062;-86
2021/06/06 02:03:09;;;;;;;13.88;7.88;;;;;;;16.90;63.37;101165.41;5086310;28;20048;-87
2021/06/06 02:05:38;;;;;;;8.40;7.03;;;;;;;16.89;63.41;101158.41;5084444;28;20044;-86
2021/06/06 02:08:09;;;;;;;12.75;7.07;;;;;;;16.90;63.35;101153.94;5128978;28;20047;-86
2021/06/06 02:10:43;;;;;;;7.35;6.50;;;;;;;16.84;63.55;101157.03;5074910;28;20044;-88
2021/06/06 02:13:13;;;;;;;10.15;7.55;;;;;;;16.96;63.39;101156.09;5102933;28;20055;-89
2021/06/06 02:15:45;;;;;;;10.00;7.07;;;;;;;16.95;63.32;101157.06;5088213;28;20056;-83
2021/06/06 02:18:12;;;;;;;9.20;7.18;;;;;;;16.91;63.51;101169.75;5081353;28;20048;-87
2021/06/06 02:20:44;;;;;;;13.18;8.15;;;;;;;16.89;63.62;101165.53;5097632;28;20043;-88
2021/06/06 02:23:14;;;;;;;12.68;7.55;;;;;;;16.81;64.23;101168.78;5078985;28;20495;-87
2021/06/06 02:25:41;;;;;;;15.30;8.65;;;;;;;16.70;64.50;101164.22;5092972;28;20154;-86
2021/06/06 02:28:29;;;;;;;16.33;7.43;;;;;;;16.65;65.34;101173.53;5075283;28;20058;-86
2021/06/06 02:31:08;;;;;;;12.88;7.75;;;;;;;16.70;64.83;101163.38;5088276;28;20128;-88
2021/06/06 02:33:44;;;;;;;8.25;7.20;;;;;;;16.62;64.97;101160.47;5099311;28;20134;-88
2021/06/06 02:36:14;;;;;;;11.00;7.80;;;;;;;16.63;65.75;101163.00;5070954;28;20040;-85
2021/06/06 02:38:51;;;;;;;10.75;6.97;;;;;;;16.67;64.95;101160.97;5095538;28;20215;-87
2021/06/06 02:41:27;;;;;;;14.27;8.25;;;;;;;16.62;65.48;101160.47;5081605;28;20057;-88
2021/06/06 02:44:18;;;;;;;11.50;7.97;;;;;;;16.50;65.67;101153.44;5096784;28;20048;-89
2021/06/06 02:46:48;;;;;;;12.13;6.93;;;;;;;16.44;66.03;101160.06;5090483;28;20063;-87
2021/06/06 02:49:19;;;;;;;14.57;7.50;;;;;;;16.34;66.41;101159.03;5090225;28;20143;-87
2021/06/06 02:52:00;;;;;;;8.07;7.28;;;;;;;16.34;66.33;101159.88;5102405;28;20075;-87
2021/06/06 02:54:34;;;;;;;13.35;8.13;;;;;;;16.20;66.81;101163.56;5091489;28;20083;-88
2021/06/06 02:57:07;;;;;;;10.18;7.35;;;;;;;16.17;67.01;101161.16;5095934;28;20059;-87
2021/06/06 02:59:48;;;;;;;10.40;7.13;;;;;;;16.40;66.17;101161.25;5085131;28;20078;-89
2021/06/06 03:02:20;;;;;;;11.35;8.38;;;;;;;16.38;66.21;101158.69;5065606;28;20374;-86
2021/06/06 03:04:51;;;;;;;12.77;8.13;;;;;;;16.30;66.45;101158.44;5074188;28;20488;-88
2021/06/06 03:07:30;;;;;;;12.60;8.00;;;;;;;16.32;66.54;101159.16;5108242;28;20073;-88
2021/06/06 03:09:57;;;;;;;10.00;7.53;;;;;;;16.34;66.38;101159.88;5096349;28;20142;-87
2021/06/06 03:12:25;;;;;;;11.40;8.48;;;;;;;16.29;67.03;101161.19;5078599;28;20112;-86
2021/06/06 03:14:53;;;;;;;11.73;7.60;;;;;;;16.37;66.34;101161.47;5100530;28;20111;-89
2021/06/06 03:17:27;;;;;;;13.55;8.48;;;;;;;16.34;66.51;101161.69;5072096;28;20135;-90
2021/06/06 03:19:57;;;;;;;9.90;7.68;;;;;;;16.24;66.82;101168.66;5057886;28;20052;-85
2021/06/06 03:22:30;;;;;;;13.30;8.23;;;;;;;16.18;67.74;101165.50;5111341;28;20158;-88
2021/06/06 03:25:01;;;;;;;13.07;7.72;;;;;;;16.15;68.19;101165.72;5087254;28;20047;-88
2021/06/06 03:27:34;;;;;;;11.90;8.27;;;;;;;16.30;67.44;101173.50;5094920;28;20047;-89
2021/06/06 03:30:33;;;;;;;14.38;8.25;;;;;;;16.41;66.61;101169.09;5078212;28;20188;-89
2021/06/06 03:33:04;;;;;;;9.50;7.65;;;;;;;16.46;66.77;101171.41;5072708;28;20158;-89
2021/06/06 03:35:31;;;;;;;10.80;8.07;;;;;;;16.39;67.23;101168.38;5098580;28;20124;-89
2021/06/06 03:37:59;;;;;;;13.85;8.30;;;;;;;16.55;66.54;101178.69;5087607;28;20078;-86
2021/06/06 03:40:29;;;;;;;10.57;7.45;;;;;;;16.64;66.73;101172.69;5104178;28;20457;-89
2021/06/06 03:42:56;;;;;;;10.68;7.90;;;;;;;16.59;66.72;101169.53;5103897;28;20062;-89
2021/06/06 03:45:23;;;;;;;12.98;7.75;;;;;;;16.60;67.24;101178.34;5118375;28;20115;-88
2021/06/06 03:47:51;;;;;;;9.68;8.13;;;;;;;16.79;66.45;101175.16;5087582;28;20067;-86
2021/06/06 03:50:19;;;;;;;11.13;7.55;;;;;;;17.04;65.41;101174.16;5102011;28;20059;-87
2021/06/06 03:52:46;;;;;;;10.88;7.15;;;;;;;17.18;64.36;101177.41;5127011;28;20066;-86
2021/06/06 03:55:15;;;;;;;13.10;9.10;;;;;;;17.31;63.84;101179.13;5093481;28;20155;-89
2021/06/06 03:57:43;;;;;;;10.52;7.70;;;;;;;17.38;63.54;101175.88;5086806;28;20123;-89
2021/06/06 04:00:14;;;;;;;13.57;8.77;;;;;;;17.23;64.63;101179.72;5086250;28;20066;-88
2021/06/06 04:02:43;;;;;;;9.65;8.38;;;;;;;17.28;64.18;101177.53;5104519;28;20131;-88
2021/06/06 04:05:11;;;;;;;11.48;7.75;;;;;;;17.44;63.65;101182.53;5125453;28;20047;-86
2021/06/06 04:07:38;;;;;;;13.75;8.50;;;;;;;17.38;63.85;101182.97;5107027;28;20043;-86
2021/06/06 04:10:07;;;;;;;9.57;8.02;;;;;;;17.45;63.86;101179.72;5109456;28;20032;-85
2021/06/06 04:12:35;;;;;;;12.05;8.23;;;;;;;17.52;63.79;101180.09;5128812;28;20126;-86
2021/06/06 04:15:03;;;;;;;12.00;8.70;;;;;;;17.60;63.75;101182.97;5113203;28;20035;-89
2021/06/06 04:17:31;;;;;;;10.82;8.32;;;;;;;17.71;63.23;101187.47;5095103;28;20068;-85
2021/06/06 04:19:58;;;;;;;9.60;8.30;;;;;;;18.15;61.31;101183.06;5111927;28;20052;-86
2021/06/06 04:22:25;;;;;;;13.18;7.93;;;;;;;18.31;60.44;101180.81;5113733;28;20048;-85
2021/06/06 04:24:52;;;;;;;10.20;7.93;;;;;;;18.62;59.81;101179.09;5113402;28;20043;-89
2021/06/06 04:27:20;;;;;;;15.10;8.23;;;;;;;19.39;57.50;101176.06;5125847;28;20051;-86
2021/06/06 04:29:47;;;;;;;11.50;8.10;;;;;;;21.04;53.06;101188.84;5112545;28;20056;-87
2021/06/06 04:32:16;;;;;;;11.25;8.68;;;;;;;22.41;48.34;101177.31;5111234;28;20073;-90
2021/06/06 04:34:44;;;;;;;9.27;7.43;;;;;;;23.35;45.26;101173.97;5121541;28;20115;-90
2021/06/06 04:37:13;;;;;;;11.27;8.57;;;;;;;23.91;43.29;101183.28;5086976;28;20071;-87
2021/06/06 04:39:41;;;;;;;10.98;8.02;;;;;;;24.40;42.56;101183.44;5105733;28;20472;-89
2021/06/06 04:42:09;;;;;;;13.15;7.80;;;;;;;25.25;40.35;101179.34;5125507;28;20114;-88
2021/06/06 04:44:37;;;;;;;11.65;8.13;;;;;;;26.09;38.22;101181.53;5104467;28;20119;-90
2021/06/06 04:47:09;;;;;;;9.07;7.15;;;;;;;26.82;36.99;101182.84;5089837;28;20063;-88
2021/06/06 04:49:38;;;;;;;12.43;7.93;;;;;;;27.37;35.73;101177.03;5081004;28;20581;-88
2021/06/06 04:52:07;;;;;;;14.15;7.80;;;;;;;27.81;34.93;101178.91;5103063;28;20059;-89
2021/06/06 04:54:34;;;;;;;9.48;7.32;;;;;;;28.17;34.28;101184.28;5104113;28;20078;-87
2021/06/06 04:57:04;;;;;;;15.35;8.00;;;;;;;27.82;34.72;101180.56;5126238;28;20066;-90
2021/06/06 04:59:35;;;;;;;9.98;8.82;;;;;;;27.74;34.61;101184.25;5101041;28;20056;-84
2021/06/06 05:02:09;;;;;;;10.20;7.53;;;;;;;28.21;34.08;101185.59;5070026;28;20080;-89
2021/06/06 05:04:37;;;;;;;11.70;7.47;;;;;;;29.09;32.76;101182.63;5110313;28;20139;-88
2021/06/06 05:07:05;;;;;;;10.73;7.82;;;;;;;29.43;32.22;101188.06;5111435;28;20048;-89
2021/06/06 05:09:32;;;;;;;9.90;7.22;;;;;;;30.25;30.56;101175.44;5107868;28;20055;-87
2021/06/06 05:11:59;;;;;;;9.52;7.40;;;;;;;30.08;30.70;101188.56;5107845;28;20496;-88
2021/06/06 05:14:27;;;;;;;8.50;7.60;;;;;;;30.98;29.44;101181.78;5090190;28;20354;-88
2021/06/06 05:16:54;;;;;;;12.18;8.27;;;;;;;31.76;28.13;101180.94;5074075;28;20144;-88
2021/06/06 05:19:21;;;;;;;11.80;7.22;;;;;;;30.74;29.73;101182.41;5089775;28;20048;-87
2021/06/06 05:21:49;;;;;;;8.85;7.90;;;;;;;30.70;29.59;101184.69;5095235;28;20121;-88
2021/06/06 05:24:16;;;;;;;9.90;7.47;;;;;;;31.17;29.38;101182.78;5077413;28;20047;-88
2021/06/06 05:26:43;;;;;;;8.40;7.25;;;;;;;31.51;28.81;101178.09;5090880;28;20077;-87
2021/06/06 05:29:11;;;;;;;9.18;7.25;;;;;;;31.88;28.13;101186.56;5104278;28;20062;-88
2021/06/06 05:31:38;;;;;;;9.20;7.03;;;;;;;32.12;27.99;101183.06;5086416;28;20044;-87
2021/06/06 05:34:05;;;;;;;8.70;7.75;;;;;;;32.50;27.52;101182.19;5069768;28;20040;-86
2021/06/06 05:36:33;;;;;;;12.65;8.07;;;;;;;32.71;27.25;101179.09;5088985;28;20139;-89
2021/06/06 05:39:00;;;;;;;9.65;8.07;;;;;;;32.95;26.95;101184.78;5110540;28;20078;-88
2021/06/06 05:41:28;;;;;;;13.55;7.78;;;;;;;33.06;26.59;101186.78;5112176;28;20476;-89
2021/06/06 05:43:55;;;;;;;12.05;8.10;;;;;;;33.23;26.49;101187.00;5095291;28;20060;-89
2021/06/06 05:46:22;;;;;;;9.73;8.10;;;;;;;33.31;26.39;101189.44;5078388;28;20147;-88
2021/06/06 05:48:49;;;;;;;9.90;8.13;;;;;;;33.32;26.43;101190.25;5083611;28;20162;-87
2021/06/06 05:51:18;;;;;;;8.85;7.90;;;;;;;33.50;26.27;101182.09;5110826;28;20066;-88
2021/06/06 05:53:45;;;;;;;9.70;8.57;;;;;;;33.40;26.07;101192.69;5105629;28;20080;-87
2021/06/06 05:56:12;;;;;;;11.82;8.23;;;;;;;32.87;27.32;101188.59;5106909;28;20059;-88
2021/06/06 05:58:40;;;;;;;13.48;8.10;;;;;;;33.13;27.16;101186.69;5059098;28;20048;-87
2021/06/06 06:01:08;;;;;;;10.65;8.27;;;;;;;33.29;26.74;101190.75;5090226;28;20048;-87
2021/06/06 06:03:36;;;;;;;9.38;8.50;;;;;;;34.35;25.41;101195.66;5074616;28;20098;-87
2021/06/06 06:06:04;;;;;;;10.75;8.85;;;;;;;34.72;25.61;101192.78;5089160;28;20442;-88
2021/06/06 06:08:38;;;;;;;10.73;8.23;;;;;;;35.17;25.08;101193.06;5092228;28;20052;-88
2021/06/06 06:11:07;;;;;;;12.48;8.18;;;;;;;34.96;24.54;101185.44;5093219;28;20059;-87
2021/06/06 06:13:35;;;;;;;9.77;8.77;;;;;;;35.22;24.61;101192.34;5060347;28;20407;-88
2021/06/06 06:16:05;;;;;;;13.63;8.45;;;;;;;35.25;24.46;101195.41;5093358;28;20058;-87
2021/06/06 06:18:33;;;;;;;12.35;8.10;;;;;;;34.69;25.07;101198.75;5076632;28;20115;-89
2021/06/06 06:21:01;;;;;;;11.05;8.93;;;;;;;34.06;26.07;101202.00;5076318;28;20553;-89
2021/06/06 06:23:28;;;;;;;9.35;8.45;;;;;;;33.56;27.10;101203.06;5074778;28;20043;-86
2021/06/06 06:25:56;;;;;;;10.07;8.57;;;;;;;34.63;26.15;101210.59;5093378;28;20043;-88
2021/06/06 06:28:23;;;;;;;13.30;8.30;;;;;;;34.04;26.70;101204.94;5076623;28;20071;-88
2021/06/06 06:30:50;;;;;;;10.55;8.40;;;;;;;34.38;26.27;101208.03;5083311;28;20134;-87
2021/06/06 06:33:18;;;;;;;10.70;8.23;;;;;;;35.23;25.25;101213.16;5078793;28;20108;-86
2021/06/06 06:35:45;;;;;;;8.27;7.47;;;;;;;35.35;25.15;101203.03;5094008;28;20078;-88
2021/06/06 06:38:13;;;;;;;11.10;8.82;;;;;;;34.97;25.58;101206.28;5080715;28;20130;-86
2021/06/06 06:40:40;;;;;;;9.20;8.30;;;;;;;35.50;24.77;101200.66;5097823;28;20086;-89
2021/06/06 06:43:07;;;;;;;9.10;8.25;;;;;;;36.38;23.58;101203.97;5061784;28;20044;-89
2021/06/06 06:45:37;;;;;;;9.35;8.20;;;;;;;35.24;25.27;101201.97;5112024;28;20051;-88
2021/06/06 06:48:08;;;;;;;12.85;8.60;;;;;;;34.74;25.96;101204.34;5075037;28;20035;-91
2021/06/06 06:50:36;;;;;;;9.48;7.68;;;;;;;35.12;25.50;101203.03;5100977;28;20083;-88
2021/06/06 06:53:04;;;;;;;8.80;8.00;;;;;;;35.08;25.51;101210.94;5075424;28;20040;-88
2021/06/06 06:55:31;;;;;;;8.88;7.28;;;;;;;34.84;26.13;101201.00;5075009;28;20752;-87
2021/06/06 06:58:04;;;;;;;9.43;7.75;;;;;;;34.82;25.73;101206.72;5087887;28;20428;-89
2021/06/06 07:00:40;;;;;;;11.65;7.55;;;;;;;34.67;26.26;101209.91;5085999;28;20520;-87
2021/06/06 07:03:09;;;;;;;12.85;8.45;;;;;;;34.85;25.81;101205.41;5090739;28;20047;-87
2021/06/06 07:05:36;;;;;;;10.48;7.93;;;;;;;35.03;25.80;101207.22;5086610;28;20051;-86
2021/06/06 07:08:06;;;;;;;10.75;8.18;;;;;;;34.37;26.50;101209.13;5071867;28;20519;-88
2021/06/06 07:10:35;;;;;;;8.70;7.70;;;;;;;33.97;27.25;101210.53;5108353;28;20043;-87
2021/06/06 07:13:02;;;;;;;8.35;7.57;;;;;;;34.40;26.84;101217.66;5091911;28;20150;-87
2021/06/06 07:15:29;;;;;;;8.60;7.53;;;;;;;35.04;25.84;101212.47;5111863;28;20123;-87
2021/06/06 07:17:57;;;;;;;8.52;7.40;;;;;;;35.29;25.77;101211.38;5093392;28;20093;-86
2021/06/06 07:20:31;;;;;;;8.43;7.68;;;;;;;36.03;24.45;101212.41;5109663;28;20079;-88
2021/06/06 07:22:58;;;;;;;10.60;7.72;;;;;;;36.63;23.59;101209.09;5078798;28;20032;-88
2021/06/06 07:25:25;;;;;;;10.07;7.55;;;;;;;37.11;23.33;101199.44;5058863;28;20407;-87
2021/06/06 07:27:54;;;;;;;10.00;8.65;;;;;;;36.89;23.32;101204.03;5092100;28;20441;-89
2021/06/06 07:30:29;;;;;;;8.32;7.68;;;;;;;38.48;21.39;101204.91;5092291;28;20047;-88
2021/06/06 07:32:57;;;;;;;8.63;7.82;;;;;;;37.86;21.90;101200.69;5091412;28;20070;-87
2021/06/06 07:35:27;;;;;;;8.13;7.32;;;;;;;37.44;22.02;101197.72;5108798;28;20063;-86
2021/06/06 07:37:55;;;;;;;9.05;7.40;;;;;;;36.12;23.36;101199.97;5091818;28;20062;-88
2021/06/06 07:40:29;;;;;;;9.02;8.02;;;;;;;36.66;23.12;101205.06;5072805;28;20054;-88
2021/06/06 07:42:59;;;;;;;8.93;8.02;;;;;;;37.68;21.71;101201.00;5091808;28;20158;-88
2021/06/06 07:45:28;;;;;;;8.43;7.57;;;;;;;37.78;21.68;101192.06;5091787;28;20534;-87
2021/06/06 07:47:55;;;;;;;8.50;7.10;;;;;;;36.40;22.82;101195.53;5096552;28;20079;-88
2021/06/06 07:50:27;;;;;;;8.90;7.78;;;;;;;36.06;23.71;101197.38;5080703;28;20063;-89
2021/06/06 07:52:54;;;;;;;11.27;7.53;;;;;;;38.31;20.69;101194.03;5094776;28;20031;-88
2021/06/06 07:55:24;;;;;;;9.38;8.10;;;;;;;38.81;20.37;101201.06;5113148;28;20043;-87
2021/06/06 07:57:52;;;;;;;6.80;6.10;;;;;;;38.15;20.01;101195.78;5105783;28;20158;-88
2021/06/06 08:00:24;;;;;;;7.60;6.93;;;;;;;39.31;19.13;101196.13;5091973;28;20031;-88
2021/06/06 08:02:54;;;;;;;7.85;7.13;;;;;;;38.89;19.35;101205.25;5112846;28;20181;-87
2021/06/06 08:05:25;;;;;;;12.40;7.00;;;;;;;37.42;20.91;101197.13;5093556;28;20047;-89
2021/06/06 08:07:52;;;;;;;8.10;7.38;;;;;;;37.90;21.11;101195.53;5092909;28;20035;-87
2021/06/06 08:10:25;;;;;;;7.72;6.32;;;;;;;38.69;19.34;101192.97;5111603;28;20825;-89
2021/06/06 08:12:52;;;;;;;9.27;6.93;;;;;;;39.11;19.50;101197.66;5089257;28;20048;-87
2021/06/06 08:15:21;;;;;;;9.35;6.63;;;;;;;39.31;19.12;101196.13;5108255;28;20131;-86
2021/06/06 08:17:48;;;;;;;8.38;6.45;;;;;;;39.37;18.96;101198.66;5108442;28;20170;-88
2021/06/06 08:20:22;;;;;;;8.82;6.90;;;;;;;37.05;21.12;101200.44;5087746;28;20055;-88
2021/06/06 08:22:55;;;;;;;7.20;6.10;;;;;;;37.36;21.03;101196.19;5104289;28;20069;-88
2021/06/06 08:25:23;;;;;;;6.55;5.95;;;;;;;36.96;21.48;101199.22;5107577;28;20053;-88
2021/06/06 08:27:51;;;;;;;9.55;7.40;;;;;;;35.92;21.98;101199.56;5113829;28;20044;-88
2021/06/06 08:30:32;;;;;;;6.10;5.53;;;;;;;35.55;22.02;101205.41;5099652;28;20080;-87
2021/06/06 08:33:05;;;;;;;8.30;6.43;;;;;;;34.60;23.60;101198.25;5134881;28;20083;-87
2021/06/06 08:35:53;;;;;;;6.93;5.97;;;;;;;33.58;23.93;101200.06;5111185;28;20019;-88
2021/06/06 08:38:21;;;;;;;5.57;5.07;;;;;;;32.69;25.19;101194.84;5115052;28;20569;-88
2021/06/06 08:40:58;;;;;;;11.88;5.10;;;;;;;32.44;25.18;101204.91;5116448;28;20078;-86
2021/06/06 08:43:50;;;;;;;5.72;5.15;;;;;;;32.07;24.67;101201.97;5100495;28;20127;-87
2021/06/06 08:46:22;;;;;;;6.75;4.88;;;;;;;30.84;26.33;101193.69;5078758;28;20044;-88
2021/06/06 08:48:50;;;;;;;7.57;5.00;;;;;;;31.14;26.61;101193.25;5114653;28;20470;-87
2021/06/06 08:51:42;;;;;;;10.73;5.60;;;;;;;31.12;27.03;101196.19;5094398;28;20048;-86
2021/06/06 08:54:54;;;;;;;5.90;4.97;;;;;;;30.22;28.07;101206.59;5060682;28;20466;-85
2021/06/06 08:57:48;;;;;;;5.85;4.70;;;;;;;30.59;27.35;101193.47;5110309;28;20051;-86
2021/06/06 09:00:30;;;;;;;6.05;4.00;;;;;;;30.23;25.52;101208.25;5077184;28;20040;-86
2021/06/06 09:03:02;;;;;;;5.80;3.05;;;;;;;30.43;23.53;101204.72;5093152;28;20053;-88
2021/06/06 09:05:33;;;;;;;9.85;3.80;;;;;;;30.48;24.09;101199.50;5097350;28;20107;-88
2021/06/06 09:08:20;;;;;;;6.95;3.30;;;;;;;30.23;23.58;101204.72;5078493;28;20056;-87
2021/06/06 09:10:53;;;;;;;5.38;3.38;;;;;;;29.82;22.51;101204.75;5076115;28;20054;-86
2021/06/06 09:13:25;;;;;;;5.57;3.67;;;;;;;29.70;25.26;101202.63;5094785;28;20027;-87
2021/06/06 09:16:15;;;;;;;6.45;4.55;;;;;;;30.57;25.51;101200.16;5091985;28;20061;-87
2021/06/06 09:19:00;;;;;;;4.65;3.70;;;;;;;29.13;26.65;101192.03;5110242;28;20039;-86
2021/06/06 09:21:28;;;;;;;7.03;3.88;;;;;;;30.11;24.85;101199.00;5108383;28;20075;-89
2021/06/06 09:24:08;;;;;;;5.47;3.45;;;;;;;30.17;24.42;101200.94;5084998;28;20035;-86
2021/06/06 09:26:35;;;;;;;5.45;3.17;;;;;;;30.67;22.04;101203.31;5092288;28;20551;-88
2021/06/06 09:29:06;;;;;;;4.75;2.95;;;;;;;29.80;21.23;101204.94;5112427;28;20118;-87
2021/06/06 09:31:33;;;;;;;5.60;3.30;;;;;;;30.31;21.17;101203.69;5109658;28;20754;-89
2021/06/06 09:34:05;;;;;;;3.85;2.42;;;;;;;30.55;22.09;101194.94;5070566;28;20062;-86
2021/06/06 09:36:39;;;;;;;6.47;3.75;;;;;;;30.51;23.03;101193.66;5074505;28;20135;-87
2021/06/06 09:39:16;;;;;;;6.47;3.95;;;;;;;30.79;23.63;101185.34;5081033;28;20043;-87
2021/06/06 09:41:55;;;;;;;3.30;3.00;;;;;;;31.47;22.61;101185.03;5085500;28;20054;-86
2021/06/06 09:44:29;;;;;;;4.15;3.58;;;;;;;31.15;23.26;101193.03;5066870;28;20067;-86
2021/06/06 09:47:15;;;;;;;9.50;4.03;;;;;;;31.51;22.21;101184.38;5091050;28;20054;-86
2021/06/06 09:49:45;;;;;;;7.20;4.38;;;;;;;31.54;23.20;101188.56;5091328;28;20048;-86
2021/06/06 09:52:28;;;;;;;6.32;3.75;;;;;;;31.48;22.16;101184.81;5077033;28;20178;-86
2021/06/06 09:54:57;;;;;;;5.07;3.50;;;;;;;30.95;22.91;101182.19;5087270;28;20078;-88
2021/06/06 09:57:34;;;;;;;5.25;4.07;;;;;;;30.40;24.22;101186.16;5082918;28;20209;-87
2021/06/06 10:00:19;;;;;;;4.55;3.50;;;;;;;31.09;23.48;101180.28;5093396;28;20440;-86
2021/06/06 10:02:55;;;;;;;4.95;3.72;;;;;;;31.06;22.65;101190.75;5118434;28;20043;-85
2021/06/06 10:05:31;;;;;;;6.28;4.22;;;;;;;30.70;23.53;101181.97;5076539;28;20047;-85
2021/06/06 10:08:06;;;;;;;5.55;3.72;;;;;;;31.23;23.26;101192.81;5086203;28;20044;-87
2021/06/06 10:10:38;;;;;;;3.40;3.10;;;;;;;31.11;21.16;101185.50;5091417;28;20170;-88
2021/06/06 10:13:26;;;;;;;7.45;3.42;;;;;;;30.67;22.22;101192.44;5094733;28;20115;-86
2021/06/06 10:16:07;;;;;;;3.45;2.90;;;;;;;29.97;22.26;101194.56;5107234;28;20138;-86
2021/06/06 10:18:46;;;;;;;5.57;3.75;;;;;;;29.70;22.46;101197.19;5109486;28;20407;-86
2021/06/06 10:21:19;;;;;;;4.57;3.63;;;;;;;30.02;22.52;101184.78;5074952;28;20047;-86
2021/06/06 10:23:51;;;;;;;6.30;3.90;;;;;;;30.75;22.31;101182.19;5103003;28;20047;-85
2021/06/06 10:26:31;;;;;;;8.25;3.88;;;;;;;30.42;22.64;101184.06;5091995;28;20495;-87
2021/06/06 10:29:05;;;;;;;6.07;3.38;;;;;;;30.91;22.14;101182.81;5113301;27;20036;-88
2021/06/06 10:31:41;;;;;;;6.68;3.17;;;;;;;30.38;21.29;101180.06;5099878;28;20131;-87
2021/06/06 10:34:23;;;;;;;6.43;3.23;;;;;;;30.29;21.69;101186.75;5074534;28;20112;-87
2021/06/06 10:36:50;;;;;;;6.45;3.10;;;;;;;30.18;21.73;101180.88;5076185;28;20075;-85
2021/06/06 10:39:28;;;;;;;6.10;2.90;;;;;;;30.04;21.36;101181.88;5067545;28;20104;-86
2021/06/06 10:41:58;;;;;;;7.32;3.25;;;;;;;30.10;21.68;101181.03;5071801;28;20043;-86
2021/06/06 10:44:32;;;;;;;5.30;3.92;;;;;;;30.17;21.72;101175.63;5084874;28;20047;-86
2021/06/06 10:47:15;;;;;;;6.38;3.30;;;;;;;29.98;22.19;101178.06;5091279;28;20096;-87
2021/06/06 10:49:52;;;;;;;7.47;3.40;;;;;;;30.28;22.53;101177.75;5087013;28;20056;-86
2021/06/06 10:52:32;;;;;;;4.22;3.53;;;;;;;30.11;22.06;101181.88;5053110;28;20801;-86
2021/06/06 10:55:14;;;;;;;6.90;4.10;;;;;;;29.94;22.94;101184.13;5084969;28;20097;-85
2021/06/06 10:57:43;;;;;;;4.72;3.50;;;;;;;29.92;22.85;101178.06;5086112;28;20155;-83
2021/06/06 11:00:39;;;;;;;6.10;3.22;;;;;;;30.03;22.61;101177.47;5094289;28;20472;-84
2021/06/06 11:03:28;;;;;;;5.82;3.95;;;;;;;30.18;22.56;101175.44;5098684;28;20047;-84
2021/06/06 11:06:03;;;;;;;6.20;3.80;;;;;;;29.83;23.29;101182.00;5051337;28;20428;-87
2021/06/06 11:08:42;;;;;;;3.70;3.40;;;;;;;29.60;23.54;101177.75;5073832;28;20134;-85
2021/06/06 11:11:18;;;;;;;6.38;4.03;;;;;;;29.70;23.25;101174.66;5079006;28;20112;-83
2021/06/06 11:13:51;;;;;;;3.97;3.60;;;;;;;29.66;22.95;101182.34;5057124;28;20044;-84
2021/06/06 11:16:39;;;;;;;6.20;3.95;;;;;;;29.76;23.43;101174.66;5077346;28;20147;-84
2021/06/06 11:19:18;;;;;;;8.38;3.65;;;;;;;29.89;23.08;101173.88;5080055;28;20503;-88
2021/06/06 11:22:01;;;;;;;3.95;3.50;;;;;;;29.70;23.08;101167.34;5087361;27;20136;-85
2021/06/06 11:24:44;;;;;;;6.22;3.45;;;;;;;29.50;23.85;101169.13;5087332;28;20054;-87
2021/06/06 11:27:29;;;;;;;4.55;3.35;;;;;;;29.56;23.59;101165.63;5107326;28;20515;-84
2021/06/06 11:30:17;;;;;;;4.72;3.65;;;;;;;29.69;22.53;101176.53;5087015;28;20051;-88
2021/06/06 11:33:21;;;;;;;3.95;3.55;;;;;;;29.73;21.91;101169.66;5108087;28;20119;-85
2021/06/06 11:35:50;;;;;;;10.73;3.80;;;;;;;29.83;22.47;101163.00;5080149;28;20062;-85
2021/06/06 11:38:40;;;;;;;6.78;3.67;;;;;;;30.02;22.58;101164.94;5068694;28;20090;-85
2021/06/06 11:41:29;;;;;;;4.32;3.28;;;;;;;29.84;22.86;101159.25;5069003;27;20379;-87
2021/06/06 11:44:21;;;;;;;4.43;3.83;;;;;;;29.50;23.89;101163.69;5084234;27;20055;-87
2021/06/06 11:46:57;;;;;;;4.07;3.50;;;;;;;29.45;23.88;101153.44;5084655;28;20142;-87